Airfield :
LOGIN :

Register | Disclaimer

   EN    FR    IT 

 










Legend :    VFR   Marginal VFR   IFR   Intensive IFR   Very Intensive IFR
Visi :
Ceiling :
>= 8 km
>= 3000ft
5 to 8 km
1000 to 3000 ft
1500m to 5 km
500 to 1000 ft
800 to 1500m
200 to 500 ft
< 800m
< 200 ft
Symbols :   Thunderstorms  Fog  Heavy snow  Heavy precipitations  Wind > 20 kt
SIGMETs :     Misc.  Thunderstorms  Icing  Turbulence  Mountain Waves  Volcanic Ashes






- Airport Elevation : -13 ft
- IATA code : LEY


EHLE - Lelystad

CURRENT METAR :
  • 212255Z AUTO 35005KT 9999 FEW049 03/01 Q1027

EXPIRED METARs :
  • 212225Z AUTO 36004KT 9999 NSC 04/01 Q1027
  • 212155Z AUTO 01004KT 9999 NSC 04/01 Q1028
  • 212125Z AUTO 02006KT 9999 NSC 03/01 Q1028
  • 212055Z AUTO 01006KT 9999 NSC 04/02 Q1027
  • 212025Z AUTO 02006KT 9999 NSC 04/02 Q1027
  • 211955Z AUTO 02006KT 9999 NSC 04/02 Q1027
  • 211925Z AUTO 02007KT 350V060 9999 NCD 06/03 Q1027 NOSIG
  • 211855Z AUTO 07004KT 010V110 9999 SCT030 BKN034 BKN041 06/03 Q1027 NOSIG
  • 211825Z AUTO 35003KT 9999 FEW039/// 06/03 Q1027 NOSIG

TAF TAF EHLE
Valid from the 21 at 18:00 until the 23 at 00:00 UTC


211710Z 2118/2224 03012KT 9999 SCT030
BECMG 2118/2121 01006KT
BECMG 2207/2210 03012KT
PROB40
TEMPO 2210/2216 7000 -SHRA FEW025TCU BKN030
BECMG 2218/2221 02007KT



MET'MAP, your aeronautical weather chart ! - Copyright ORBIFLY December 2007 - Disclaimer

ORBIFLY MET'MAP TEAM :

Programming & Development : Alexandra Zaïnal
Original concept : Baudouin d'Aumeries
Technical & hardware support : Manuel Goepfert
Assistance : Marc-Olivier Méhu




SOURCES & CREDITS :

   NOAA